Time;durP1;ratioP1;P1;durP2;ratioP2;P2;SDS_P1;SDS_P2;PMS_P1;PMS_P2;Temp;Humidity;BMP_temperature;BMP_pressure;BME280_temperature;BME280_humidity;BME280_pressure;Samples;Min_cycle;Max_cycle;Signal;HPM_P1;HPM_P2
2023/10/11 00:02:39;;;;;;;28.30;8.82;;;19.20;99.90;;;;;;10567571;28;20443;-35
2023/10/11 00:07:42;;;;;;;40.50;11.50;;;18.80;99.90;;;;;;10566848;28;20050;-34
2023/10/11 00:12:44;;;;;;;27.90;10.00;;;18.40;99.90;;;;;;10572553;28;20050;-31
2023/10/11 00:17:47;;;;;;;42.70;12.38;;;18.90;99.90;;;;;;10573643;28;20040;-34
2023/10/11 00:22:49;;;;;;;37.97;12.77;;;18.60;99.90;;;;;;10565610;28;20043;-40
2023/10/11 00:27:52;;;;;;;34.90;11.40;;;18.40;99.90;;;;;;10554772;28;20465;-32
2023/10/11 00:32:56;;;;;;;25.23;7.90;;;18.90;99.90;;;;;;10561194;28;20056;-44
2023/10/11 00:37:59;;;;;;;32.75;9.95;;;19.50;99.90;;;;;;10571353;28;20479;-36
2023/10/11 00:43:01;;;;;;;41.40;10.88;;;19.10;99.90;;;;;;10565483;28;20055;-33
2023/10/11 00:48:07;;;;;;;40.55;11.85;;;19.00;99.90;;;;;;10567495;28;20055;-33
2023/10/11 00:53:10;;;;;;;23.70;8.55;;;18.40;99.90;;;;;;10555734;28;20408;-37
2023/10/11 00:58:15;;;;;;;26.90;9.60;;;18.80;99.90;;;;;;10553591;28;20044;-37
2023/10/11 01:03:21;;;;;;;47.03;12.48;;;19.00;99.90;;;;;;10558992;28;20727;-38
2023/10/11 01:08:23;;;;;;;36.60;12.93;;;18.40;99.90;;;;;;10558067;28;20062;-33
2023/10/11 01:13:25;;;;;;;36.65;11.48;;;18.40;99.90;;;;;;10555953;28;20062;-37
2023/10/11 01:18:29;;;;;;;33.87;10.63;;;18.80;99.90;;;;;;10564141;28;20067;-31
2023/10/11 01:23:34;;;;;;;32.08;10.40;;;18.90;99.90;;;;;;10554337;28;20462;-37
2023/10/11 01:28:37;;;;;;;31.98;9.48;;;19.20;99.90;;;;;;10567013;28;20594;-31
2023/10/11 01:33:40;;;;;;;43.97;11.32;;;19.30;99.90;;;;;;10559494;28;20484;-34
2023/10/11 01:38:46;;;;;;;40.45;11.45;;;19.10;99.90;;;;;;10556981;28;20063;-37
2023/10/11 01:43:49;;;;;;;33.05;8.82;;;18.50;99.90;;;;;;10554421;28;20374;-31
2023/10/11 01:48:52;;;;;;;19.65;8.18;;;18.60;99.90;;;;;;10553764;28;20044;-32
2023/10/11 01:53:55;;;;;;;33.38;9.65;;;19.00;99.90;;;;;;10567195;28;20055;-38
2023/10/11 01:59:00;;;;;;;19.92;7.85;;;19.30;99.90;;;;;;10549582;28;20315;-32
2023/10/11 02:04:04;;;;;;;29.02;8.85;;;19.40;99.90;;;;;;10548945;28;20101;-33
2023/10/11 02:09:08;;;;;;;34.05;10.73;;;18.30;99.90;;;;;;10564327;28;20043;-35
2023/10/11 02:14:13;;;;;;;35.75;9.73;;;18.30;99.90;;;;;;10553981;28;20047;-32
2023/10/11 02:19:15;;;;;;;38.80;10.73;;;18.80;99.90;;;;;;10558602;28;20035;-35
2023/10/11 02:24:18;;;;;;;33.03;12.88;;;18.00;99.90;;;;;;10560706;28;20392;-32
2023/10/11 02:29:21;;;;;;;40.47;12.23;;;18.10;99.90;;;;;;10566385;28;20075;-36
2023/10/11 02:34:23;;;;;;;33.75;11.70;;;18.20;99.90;;;;;;10553924;28;20124;-34
2023/10/11 02:39:31;;;;;;;31.08;11.25;;;18.70;99.90;;;;;;10554412;28;20518;-35
2023/10/11 02:44:33;;;;;;;36.67;11.30;;;18.40;99.90;;;;;;10562723;28;20293;-32
2023/10/11 02:49:35;;;;;;;37.00;11.30;;;18.70;99.90;;;;;;10562083;28;20097;-34
2023/10/11 02:54:42;;;;;;;31.30;12.70;;;18.30;99.90;;;;;;10559881;28;20116;-32
2023/10/11 03:15:30;;;;;;;37.90;10.43;;;18.10;99.90;;;;;;10555649;27;20123;-35
2023/10/11 03:20:36;;;;;;;28.85;9.80;;;18.10;99.90;;;;;;10531650;28;20048;-32
2023/10/11 03:25:43;;;;;;;27.10;9.90;;;19.20;99.90;;;;;;10525756;28;20048;-37
2023/10/11 03:30:46;;;;;;;33.67;13.15;;;18.40;99.90;;;;;;10527013;28;20143;-41
2023/10/11 03:35:50;;;;;;;35.00;12.40;;;18.20;99.90;;;;;;10525196;28;20459;-32
2023/10/11 03:40:55;;;;;;;38.65;11.52;;;18.60;99.90;;;;;;10526362;28;20156;-40
2023/10/11 03:46:01;;;;;;;37.83;13.45;;;18.60;99.90;;;;;;10523617;28;20048;-32
2023/10/11 03:51:06;;;;;;;40.13;10.93;;;18.50;99.90;;;;;;10529995;28;20071;-37
2023/10/11 03:56:08;;;;;;;43.92;12.57;;;18.40;99.90;;;;;;10529643;28;20094;-35
2023/10/11 04:01:21;;;;;;;36.93;13.47;;;18.50;99.90;;;;;;10529149;28;20049;-39
2023/10/11 04:06:23;;;;;;;29.52;10.60;;;18.50;99.90;;;;;;10516749;28;20465;-35
2023/10/11 04:11:37;;;;;;;40.65;12.32;;;18.40;99.90;;;;;;10522638;28;20067;-34
2023/10/11 04:16:44;;;;;;;24.95;9.85;;;18.30;99.90;;;;;;10516846;28;20132;-32
2023/10/11 04:21:55;;;;;;;34.25;9.98;;;18.10;99.90;;;;;;10521619;28;20127;-33
2023/10/11 04:27:24;;;;;;;32.45;10.48;;;18.30;99.90;;;;;;10502945;28;20050;-35
2023/10/11 04:32:40;;;;;;;44.40;14.00;;;18.50;99.90;;;;;;10504274;28;20098;-34
2023/10/11 04:37:44;;;;;;;34.90;12.27;;;18.10;99.90;;;;;;10489499;28;20053;-36
2023/10/11 04:42:53;;;;;;;43.38;12.73;;;18.30;99.90;;;;;;10492725;28;20421;-34
2023/10/11 04:47:56;;;;;;;41.45;12.80;;;18.40;99.90;;;;;;10491445;28;20169;-37
2023/10/11 04:52:59;;;;;;;41.55;11.10;;;18.40;99.90;;;;;;10496066;28;20047;-32
2023/10/11 04:58:07;;;;;;;44.35;12.20;;;18.80;99.90;;;;;;10490330;28;20052;-32
2023/10/11 05:03:10;;;;;;;37.42;12.02;;;18.60;99.90;;;;;;10495178;28;20048;-35
2023/10/11 05:08:21;;;;;;;37.85;12.40;;;18.50;99.90;;;;;;10492788;28;20036;-34
2023/10/11 05:13:36;;;;;;;47.22;12.50;;;18.40;99.90;;;;;;10493055;28;20437;-41
2023/10/11 05:18:39;;;;;;;39.10;11.60;;;18.30;99.90;;;;;;10483436;28;20133;-31
2023/10/11 05:23:52;;;;;;;43.38;12.23;;;18.20;99.90;;;;;;10491968;28;20048;-33
2023/10/11 05:29:09;;;;;;;38.78;11.00;;;18.10;99.90;;;;;;10492428;28;20052;-33
2023/10/11 05:34:46;;;;;;;45.78;12.75;;;18.40;99.90;;;;;;10484816;28;20056;-39
2023/10/11 05:55:51;;;;;;;21.63;8.60;;;18.00;99.90;;;;;;10486770;28;20052;-33
2023/10/11 06:00:54;;;;;;;33.33;10.27;;;18.30;99.90;;;;;;10493748;28;20052;-35
2023/10/11 06:06:03;;;;;;;45.25;11.85;;;18.30;99.90;;;;;;10496515;28;20058;-32
2023/10/11 06:11:08;;;;;;;39.72;11.32;;;18.50;99.90;;;;;;10504260;28;20075;-35
2023/10/11 06:16:13;;;;;;;55.08;12.73;;;19.10;99.90;;;;;;10490970;28;20064;-36
2023/10/11 06:21:24;;;;;;;40.83;12.05;;;18.30;99.90;;;;;;10490029;28;20389;-34
2023/10/11 06:31:45;;;;;;;35.22;11.77;;;18.50;99.90;;;;;;10491852;28;20052;-40
2023/10/11 06:36:49;;;;;;;39.13;10.82;;;18.40;99.90;;;;;;10503672;28;20492;-35
2023/10/11 06:41:51;;;;;;;44.63;13.15;;;18.40;99.90;;;;;;10497101;28;20058;-33
2023/10/11 06:46:53;;;;;;;32.17;10.87;;;18.10;99.90;;;;;;10490683;28;20076;-39
2023/10/11 06:51:57;;;;;;;27.83;10.47;;;18.00;99.90;;;;;;10488493;28;20813;-37
2023/10/11 06:57:01;;;;;;;35.70;12.30;;;18.70;99.90;;;;;;10490054;28;20044;-42
2023/10/11 07:02:06;;;;;;;44.63;12.02;;;18.50;99.90;;;;;;10485577;28;20059;-39
2023/10/11 07:07:09;;;;;;;45.60;12.65;;;18.90;99.90;;;;;;10487852;28;20042;-32
2023/10/11 07:12:39;;;;;;;34.88;10.90;;;18.50;99.90;;;;;;10492691;28;20101;-38
2023/10/11 07:17:41;;;;;;;36.40;11.38;;;18.40;99.90;;;;;;10489520;28;20173;-34
2023/10/11 07:22:44;;;;;;;29.17;10.00;;;18.50;99.90;;;;;;10489502;28;20048;-41
2023/10/11 07:27:53;;;;;;;32.63;10.38;;;18.60;99.90;;;;;;10488624;28;20083;-40
2023/10/11 07:32:55;;;;;;;37.45;11.07;;;18.40;99.90;;;;;;10483568;28;20440;-33
2023/10/11 07:38:00;;;;;;;32.60;10.47;;;18.70;99.90;;;;;;10487433;28;20078;-39
2023/10/11 07:43:04;;;;;;;19.05;7.72;;;18.80;99.90;;;;;;10485211;28;20844;-32
2023/10/11 07:48:07;;;;;;;12.55;5.60;;;19.00;99.90;;;;;;10498993;28;20082;-36
2023/10/11 07:53:13;;;;;;;25.50;6.28;;;19.20;99.90;;;;;;10500187;28;20114;-35
2023/10/11 07:58:16;;;;;;;19.85;6.55;;;18.60;99.90;;;;;;10488805;28;20048;-34
2023/10/11 08:03:18;;;;;;;20.02;5.32;;;18.50;99.90;;;;;;10489431;28;20082;-31
2023/10/11 08:08:21;;;;;;;7.40;4.22;;;18.80;99.90;;;;;;10492440;28;20048;-37
2023/10/11 08:13:25;;;;;;;30.55;5.68;;;18.70;99.90;;;;;;10493587;28;20060;-35
2023/10/11 08:18:27;;;;;;;16.77;5.78;;;18.90;99.90;;;;;;10496214;28;20079;-33
2023/10/11 08:23:30;;;;;;;16.63;4.93;;;18.80;99.90;;;;;;10493401;28;20672;-35
2023/10/11 08:28:34;;;;;;;19.58;5.63;;;19.10;99.90;;;;;;10492866;28;20045;-33
2023/10/11 08:33:37;;;;;;;12.90;5.03;;;18.60;99.90;;;;;;10497112;28;20045;-33
2023/10/11 08:38:41;;;;;;;13.65;5.15;;;18.90;99.90;;;;;;10491003;28;20040;-42
2023/10/11 08:43:43;;;;;;;21.50;5.63;;;18.50;99.90;;;;;;10491782;28;20109;-41
2023/10/11 08:48:50;;;;;;;18.63;5.00;;;18.50;99.90;;;;;;10492552;28;20076;-35
2023/10/11 08:53:54;;;;;;;10.82;4.60;;;18.80;99.90;;;;;;10502927;28;20139;-32
2023/10/11 08:58:56;;;;;;;22.17;4.30;;;18.90;99.90;;;;;;10523498;27;20045;-28
2023/10/11 09:04:06;;;;;;;17.33;6.25;;;18.90;99.90;;;;;;10494930;28;20048;-37
2023/10/11 09:09:14;;;;;;;15.65;5.25;;;18.90;99.90;;;;;;10489858;28;20044;-35
2023/10/11 09:14:22;;;;;;;15.70;5.70;;;18.90;99.90;;;;;;10492346;28;20142;-38
2023/10/11 09:19:25;;;;;;;19.67;5.65;;;19.00;99.90;;;;;;10490596;28;20045;-36
2023/10/11 09:24:37;;;;;;;24.55;7.32;;;19.10;99.90;;;;;;10495388;28;20383;-33
2023/10/11 09:29:39;;;;;;;19.07;6.53;;;19.20;99.90;;;;;;10492751;28;20036;-35
2023/10/11 09:34:42;;;;;;;17.95;6.25;;;19.00;99.90;;;;;;10492065;28;20049;-34
2023/10/11 09:39:45;;;;;;;15.93;5.35;;;19.00;99.90;;;;;;10491929;28;20072;-31
2023/10/11 09:44:47;;;;;;;16.60;5.05;;;19.20;99.90;;;;;;10491297;28;20056;-37
2023/10/11 09:49:53;;;;;;;11.93;4.75;;;19.30;99.90;;;;;;10491303;28;20480;-37
2023/10/11 09:54:56;;;;;;;9.40;4.10;;;19.50;99.90;;;;;;10490933;28;20056;-36
2023/10/11 10:00:08;;;;;;;11.15;3.40;;;19.60;99.90;;;;;;10493516;28;20044;-32
2023/10/11 10:05:11;;;;;;;8.20;3.38;;;19.80;99.90;;;;;;10486230;28;20076;-44
2023/10/11 10:10:15;;;;;;;;;;;20.10;99.90;;;;;;10490344;28;20044;-35
2023/10/11 10:15:20;;;;;;;19.40;5.15;;;20.10;99.90;;;;;;10490095;28;19934;-32
2023/10/11 10:20:42;;;;;;;13.70;3.85;;;20.00;99.90;;;;;;10492272;28;20044;-32
2023/10/11 10:25:47;;;;;;;16.55;4.38;;;20.20;99.90;;;;;;10484878;28;20477;-33
2023/10/11 10:31:09;;;;;;;17.98;4.72;;;20.30;99.90;;;;;;10492613;28;20051;-35
2023/10/11 10:36:37;;;;;;;20.30;5.07;;;20.00;99.90;;;;;;10492502;28;20055;-37
2023/10/11 10:41:41;;;;;;;19.88;5.38;;;20.00;99.90;;;;;;10490491;28;20048;-36
2023/10/11 10:46:49;;;;;;;27.33;5.55;;;19.80;99.90;;;;;;10489810;28;20053;-41
2023/10/11 10:51:53;;;;;;;19.90;5.53;;;19.70;99.90;;;;;;10488645;28;20386;-33
2023/10/11 10:56:58;;;;;;;17.85;4.40;;;19.80;99.90;;;;;;10491818;28;20056;-37
2023/10/11 11:02:11;;;;;;;20.10;4.40;;;19.80;99.90;;;;;;10490205;28;20040;-39
2023/10/11 11:07:23;;;;;;;13.65;4.28;;;19.90;99.90;;;;;;10489404;28;20048;-37
2023/10/11 11:12:29;;;;;;;14.07;4.20;;;20.00;99.90;;;;;;10488626;28;20060;-38
2023/10/11 11:17:47;;;;;;;17.10;4.25;;;20.10;99.90;;;;;;10487835;28;20041;-32
2023/10/11 11:22:52;;;;;;;27.50;5.65;;;19.90;99.90;;;;;;10490242;28;20053;-36
2023/10/11 11:28:07;;;;;;;21.42;4.70;;;20.30;99.90;;;;;;10488600;28;20045;-42
2023/10/11 11:33:28;;;;;;;13.98;4.10;;;20.30;99.90;;;;;;10490820;28;20052;-34
2023/10/11 11:38:36;;;;;;;13.05;4.43;;;20.20;99.90;;;;;;10499999;28;20040;-41
2023/10/11 11:43:40;;;;;;;16.85;6.38;;;20.50;99.90;;;;;;10497333;28;20405;-38
2023/10/11 11:48:42;;;;;;;17.70;4.68;;;20.00;99.90;;;;;;10495800;28;20060;-41
2023/10/11 11:53:45;;;;;;;22.27;6.88;;;20.00;99.90;;;;;;10496068;28;20044;-38
2023/10/11 11:58:50;;;;;;;24.58;6.25;;;19.90;99.90;;;;;;10497702;28;20045;-36
2023/10/11 12:03:54;;;;;;;19.40;6.80;;;19.90;99.90;;;;;;10497616;28;20052;-32
2023/10/11 12:08:57;;;;;;;21.90;5.75;;;20.00;99.90;;;;;;10495576;28;20045;-33
2023/10/11 12:14:03;;;;;;;28.80;8.63;;;20.30;99.90;;;;;;10494975;28;20493;-36
2023/10/11 12:19:11;;;;;;;32.85;8.00;;;20.00;99.90;;;;;;10495516;28;20390;-37
2023/10/11 12:24:13;;;;;;;25.13;6.43;;;19.80;99.90;;;;;;10500691;28;20047;-37
2023/10/11 12:29:18;;;;;;;23.05;8.30;;;19.90;99.90;;;;;;10504147;28;20067;-33
2023/10/11 12:34:24;;;;;;;25.95;6.47;;;19.90;99.90;;;;;;10495250;28;20064;-36
2023/10/11 12:39:29;;;;;;;19.52;5.22;;;19.60;99.90;;;;;;10494082;28;20094;-32
2023/10/11 12:44:32;;;;;;;15.38;5.97;;;20.00;99.90;;;;;;10490136;28;20051;-36
2023/10/11 12:49:34;;;;;;;20.92;6.50;;;20.10;99.90;;;;;;10493629;28;20083;-40
2023/10/11 12:54:36;;;;;;;24.92;5.97;;;19.70;99.90;;;;;;10495450;28;20092;-35
2023/10/11 12:59:39;;;;;;;20.10;4.70;;;19.90;99.90;;;;;;10492881;28;20127;-37
2023/10/11 13:04:46;;;;;;;22.65;6.15;;;20.10;99.90;;;;;;10494057;28;20037;-37
2023/10/11 13:09:48;;;;;;;25.35;7.07;;;19.50;99.90;;;;;;10489412;28;20113;-38
2023/10/11 13:14:53;;;;;;;40.17;7.53;;;19.40;99.90;;;;;;10492330;28;20057;-41
2023/10/11 13:19:55;;;;;;;24.02;7.18;;;19.40;99.90;;;;;;10491202;28;20431;-37
2023/10/11 13:24:59;;;;;;;33.85;9.50;;;19.60;99.90;;;;;;10492233;28;20142;-43
2023/10/11 13:30:02;;;;;;;22.65;9.70;;;19.40;99.90;;;;;;10492541;28;20059;-36
2023/10/11 13:35:05;;;;;;;25.55;11.45;;;19.50;99.90;;;;;;10492012;28;20048;-34
2023/10/11 13:40:08;;;;;;;25.92;9.32;;;19.50;99.90;;;;;;10492371;28;20048;-46
2023/10/11 13:45:14;;;;;;;23.10;10.18;;;19.90;99.90;;;;;;10492467;28;20056;-37
2023/10/11 13:50:21;;;;;;;23.30;9.95;;;20.10;99.90;;;;;;10505490;28;20062;-39
2023/10/11 13:55:24;;;;;;;26.83;10.98;;;20.20;99.90;;;;;;10491618;28;20469;-38
2023/10/11 14:05:49;;;;;;;23.92;9.75;;;20.20;99.90;;;;;;10496916;28;20115;-33
2023/10/11 14:10:52;;;;;;;36.20;11.23;;;20.50;99.90;;;;;;10491272;28;20053;-35
2023/10/11 14:15:57;;;;;;;27.70;9.43;;;20.10;99.90;;;;;;10490283;28;20101;-38
2023/10/11 14:21:01;;;;;;;22.85;8.57;;;20.40;99.90;;;;;;10490285;28;20497;-32
2023/10/11 14:26:04;;;;;;;33.88;9.07;;;20.50;99.90;;;;;;10491930;28;20124;-32
2023/10/11 14:31:07;;;;;;;37.10;9.73;;;20.70;99.90;;;;;;10489911;28;20045;-32
2023/10/11 14:36:10;;;;;;;20.70;7.00;;;20.10;99.90;;;;;;10489668;28;20094;-35
2023/10/11 14:41:14;;;;;;;21.60;7.80;;;20.90;99.90;;;;;;10489787;28;20041;-39
2023/10/11 14:46:19;;;;;;;25.70;7.95;;;20.60;99.90;;;;;;10490907;28;20072;-38
2023/10/11 14:51:21;;;;;;;20.60;6.78;;;21.00;99.90;;;;;;10492355;28;20060;-36
2023/10/11 14:56:22;;;;;;;24.27;7.68;;;21.10;99.90;;;;;;10494442;28;20136;-34
2023/10/11 15:01:26;;;;;;;20.60;6.78;;;21.00;99.90;;;;;;10489322;28;20526;-34
2023/10/11 15:06:27;;;;;;;27.48;8.98;;;20.80;99.90;;;;;;10500463;28;20051;-31
2023/10/11 15:11:34;;;;;;;31.17;8.68;;;20.90;99.90;;;;;;10497131;28;20045;-31
2023/10/11 15:16:38;;;;;;;33.92;10.50;;;21.30;99.90;;;;;;10490889;28;20044;-32
2023/10/11 15:21:39;;;;;;;25.70;9.38;;;21.20;99.90;;;;;;10494910;28;20098;-38
2023/10/11 15:26:41;;;;;;;22.92;9.15;;;21.10;99.90;;;;;;10489029;28;20053;-34
2023/10/11 15:31:45;;;;;;;36.65;10.63;;;21.20;99.90;;;;;;10491820;28;20443;-34
2023/10/11 15:36:49;;;;;;;31.17;10.48;;;21.20;99.90;;;;;;10488078;28;20081;-32
2023/10/11 15:41:51;;;;;;;35.40;12.27;;;21.20;99.90;;;;;;10488258;28;20052;-33
2023/10/11 15:46:57;;;;;;;22.63;10.32;;;20.70;99.90;;;;;;10491719;28;20056;-39
2023/10/11 15:52:00;;;;;;;26.40;11.63;;;20.90;99.90;;;;;;10493381;28;20045;-35
2023/10/11 15:57:03;;;;;;;27.70;10.23;;;21.20;99.90;;;;;;10488762;28;20073;-41
2023/10/11 16:02:07;;;;;;;31.27;11.38;;;20.90;99.90;;;;;;10491050;28;20036;-32
2023/10/11 16:07:09;;;;;;;16.15;6.75;;;20.60;99.90;;;;;;10487519;28;20041;-39
2023/10/11 16:12:12;;;;;;;21.42;7.22;;;21.00;99.90;;;;;;10487618;28;20141;-33
2023/10/11 16:17:16;;;;;;;18.52;7.53;;;21.00;99.90;;;;;;10488202;28;20052;-33
2023/10/11 16:22:18;;;;;;;26.35;9.52;;;21.00;99.90;;;;;;10494310;28;20513;-33
2023/10/11 16:27:20;;;;;;;28.58;11.82;;;21.00;99.90;;;;;;10495010;28;20041;-37
2023/10/11 16:32:23;;;;;;;28.38;10.25;;;20.30;99.90;;;;;;10506822;28;20107;-33
2023/10/11 16:37:25;;;;;;;32.97;9.38;;;20.70;99.90;;;;;;10495304;28;20053;-38
2023/10/11 16:42:27;;;;;;;22.48;10.48;;;20.90;99.90;;;;;;10497138;28;20087;-33
2023/10/11 16:47:36;;;;;;;27.40;9.05;;;20.50;99.90;;;;;;10491771;28;20097;-33
2023/10/11 16:52:39;;;;;;;40.60;11.25;;;20.20;99.90;;;;;;10483448;28;20528;-36
2023/10/11 16:57:41;;;;;;;14.15;6.50;;;20.50;99.90;;;;;;10495259;28;20072;-40
2023/10/11 17:02:45;;;;;;;18.48;6.78;;;21.10;99.90;;;;;;10490102;28;20066;-43
2023/10/11 17:07:48;;;;;;;35.40;10.10;;;21.20;99.90;;;;;;10493139;28;20052;-32
2023/10/11 17:12:49;;;;;;;22.48;7.90;;;21.10;99.90;;;;;;10500394;28;20525;-33
2023/10/11 17:17:54;;;;;;;32.28;11.05;;;21.20;99.90;;;;;;10493067;28;20151;-32
2023/10/11 17:22:56;;;;;;;33.38;9.35;;;20.20;99.90;;;;;;10490312;28;20090;-34
2023/10/11 17:27:58;;;;;;;24.42;8.68;;;20.00;99.90;;;;;;10493968;28;20505;-33
2023/10/11 17:33:04;;;;;;;38.55;11.18;;;20.20;99.90;;;;;;10505098;28;20044;-38
2023/10/11 17:38:06;;;;;;;32.25;11.57;;;20.10;99.90;;;;;;10492905;28;20052;-33
2023/10/11 17:43:08;;;;;;;22.83;10.15;;;19.70;99.90;;;;;;10493015;28;20050;-38
2023/10/11 17:48:13;;;;;;;34.15;11.27;;;20.10;99.90;;;;;;10491735;28;20520;-38
2023/10/11 17:53:15;;;;;;;36.92;10.82;;;19.70;99.90;;;;;;10495126;28;20532;-35
2023/10/11 17:58:17;;;;;;;40.28;10.13;;;19.80;99.90;;;;;;10490413;28;20056;-34
2023/10/11 18:03:20;;;;;;;23.33;9.40;;;19.90;99.90;;;;;;10491180;28;20045;-32
2023/10/11 18:08:22;;;;;;;31.55;10.98;;;19.80;99.90;;;;;;10491317;28;20515;-34
2023/10/11 18:13:24;;;;;;;38.15;11.35;;;19.60;99.90;;;;;;10501245;28;20060;-39
2023/10/11 18:18:27;;;;;;;13.02;6.65;;;19.80;99.90;;;;;;10488936;28;20068;-32
2023/10/11 18:23:29;;;;;;;29.58;8.82;;;20.40;99.90;;;;;;10495038;28;20087;-32
2023/10/11 18:28:32;;;;;;;26.80;10.88;;;20.00;99.90;;;;;;10490148;28;20706;-32
2023/10/11 18:33:37;;;;;;;14.10;6.60;;;19.90;99.90;;;;;;10491108;28;20255;-34
2023/10/11 18:38:39;;;;;;;35.17;11.25;;;20.50;99.90;;;;;;10490402;28;20084;-34
2023/10/11 18:43:42;;;;;;;38.92;12.75;;;19.80;99.90;;;;;;10487813;28;20048;-34
2023/10/11 18:48:45;;;;;;;38.15;12.25;;;19.90;99.90;;;;;;10485064;28;20131;-35
2023/10/11 18:53:47;;;;;;;41.88;12.40;;;19.60;99.90;;;;;;10503609;28;20394;-34
2023/10/11 18:58:49;;;;;;;30.60;10.25;;;19.50;99.90;;;;;;10488625;28;20158;-33
2023/10/11 19:03:52;;;;;;;23.95;9.57;;;19.50;99.90;;;;;;10495772;28;20044;-33
2023/10/11 19:08:55;;;;;;;28.38;9.02;;;19.30;99.90;;;;;;10491860;28;20045;-37
2023/10/11 19:13:57;;;;;;;24.48;8.75;;;19.70;99.90;;;;;;10488644;28;20071;-33
2023/10/11 19:19:00;;;;;;;23.88;8.73;;;19.50;99.90;;;;;;10486924;28;20044;-32
2023/10/11 19:24:08;;;;;;;16.85;6.65;;;19.30;99.90;;;;;;10491278;28;20114;-36
2023/10/11 19:29:10;;;;;;;18.23;8.25;;;19.90;99.90;;;;;;10491780;28;20395;-40
2023/10/11 19:34:13;;;;;;;22.30;8.48;;;19.10;99.90;;;;;;10500230;28;20080;-36
2023/10/11 19:39:18;;;;;;;17.33;7.32;;;19.20;99.90;;;;;;10488508;28;20066;-44
2023/10/11 19:44:20;;;;;;;25.45;7.65;;;19.80;99.90;;;;;;10489213;28;20553;-35
2023/10/11 19:49:26;;;;;;;17.55;7.25;;;19.50;99.90;;;;;;10487787;28;20469;-33
2023/10/11 19:54:29;;;;;;;25.40;9.13;;;19.40;99.90;;;;;;10489761;28;20071;-32
2023/10/11 19:59:32;;;;;;;23.92;9.48;;;18.80;99.90;;;;;;10494909;28;20404;-34
2023/10/11 20:04:35;;;;;;;28.95;9.70;;;18.70;99.90;;;;;;10495716;28;20076;-36
2023/10/11 20:09:37;;;;;;;22.98;8.95;;;18.80;99.90;;;;;;10495691;28;20128;-33
2023/10/11 20:14:39;;;;;;;20.63;7.85;;;18.70;99.90;;;;;;10495116;28;20496;-34
2023/10/11 20:19:42;;;;;;;31.37;10.67;;;19.30;99.90;;;;;;10497769;28;20068;-34
2023/10/11 20:24:44;;;;;;;25.25;9.63;;;20.00;99.90;;;;;;10499786;28;20478;-36
2023/10/11 20:29:46;;;;;;;;;;;19.10;99.90;;;;;;10495466;28;20045;-32
2023/10/11 20:34:49;;;;;;;26.13;9.20;;;18.80;99.90;;;;;;10494864;28;20403;-38
2023/10/11 20:39:51;;;;;;;27.48;8.88;;;19.20;99.90;;;;;;10494937;28;20052;-34
2023/10/11 20:44:53;;;;;;;21.00;8.10;;;19.00;99.90;;;;;;10494710;28;20113;-37
2023/10/11 20:49:56;;;;;;;29.13;9.52;;;19.20;99.90;;;;;;10495107;28;20185;-40
2023/10/11 20:54:58;;;;;;;14.95;7.07;;;18.90;99.90;;;;;;10483970;28;20040;-32
2023/10/11 21:00:00;;;;;;;18.70;7.38;;;19.40;99.90;;;;;;10494217;28;20790;-36
2023/10/11 21:05:03;;;;;;;27.25;8.25;;;19.70;99.90;;;;;;10489278;28;20106;-34
2023/10/11 21:10:10;;;;;;;26.95;8.88;;;19.60;99.90;;;;;;10494317;28;20045;-35
2023/10/11 21:15:12;;;;;;;23.48;8.23;;;19.00;99.90;;;;;;10495065;28;20056;-33
2023/10/11 21:20:17;;;;;;;21.88;8.48;;;19.00;99.90;;;;;;10493712;28;20057;-39
2023/10/11 21:25:19;;;;;;;26.60;9.82;;;19.00;99.90;;;;;;10501739;28;20040;-33
2023/10/11 21:30:21;;;;;;;22.05;7.95;;;18.90;99.90;;;;;;10495483;28;20077;-32
2023/10/11 21:35:24;;;;;;;22.92;8.23;;;18.80;99.90;;;;;;10492424;28;20061;-35
2023/10/11 21:40:28;;;;;;;23.98;9.07;;;19.10;99.90;;;;;;10492845;28;20049;-32
2023/10/11 21:45:31;;;;;;;27.52;10.93;;;18.70;99.90;;;;;;10472682;28;20566;-37
2023/10/11 21:50:35;;;;;;;;;;;19.20;99.90;;;;;;10492491;28;20409;-35
2023/10/11 21:55:38;;;;;;;20.70;9.48;;;18.50;99.90;;;;;;10490344;28;20288;-35
2023/10/11 22:00:47;;;;;;;15.55;8.07;;;18.50;99.90;;;;;;10488301;28;20059;-40
2023/10/11 22:05:50;;;;;;;23.13;10.05;;;19.10;99.90;;;;;;10490034;28;20413;-32
2023/10/11 22:10:54;;;;;;;19.95;9.32;;;19.00;99.90;;;;;;10491412;28;20048;-39
2023/10/11 22:15:56;;;;;;;19.15;9.07;;;18.80;99.90;;;;;;10491502;28;20048;-34
2023/10/11 22:21:00;;;;;;;25.73;10.45;;;19.10;99.90;;;;;;10492729;28;20119;-32
2023/10/11 22:26:03;;;;;;;20.23;10.13;;;19.20;99.90;;;;;;10490746;28;20174;-38
2023/10/11 22:31:06;;;;;;;17.75;9.82;;;18.90;99.90;;;;;;10490419;28;20082;-39
2023/10/11 22:36:14;;;;;;;28.88;10.30;;;19.30;99.90;;;;;;10490005;28;20514;-39
2023/10/11 22:41:16;;;;;;;20.67;9.50;;;19.30;99.90;;;;;;10490854;28;20045;-40
2023/10/11 22:46:20;;;;;;;;;;;18.80;99.90;;;;;;10490863;28;20500;-37
2023/10/11 22:51:27;;;;;;;32.75;11.45;;;19.10;99.90;;;;;;10490152;28;19931;-40
2023/10/11 22:56:30;;;;;;;26.13;10.90;;;18.60;99.90;;;;;;10490851;28;20044;-34
2023/10/11 23:01:32;;;;;;;29.25;10.70;;;18.50;99.90;;;;;;10490009;28;20582;-39
2023/10/11 23:06:35;;;;;;;30.85;12.20;;;18.80;99.90;;;;;;10488900;28;20068;-37
2023/10/11 23:11:52;;;;;;;24.85;10.55;;;18.80;99.90;;;;;;10489538;28;20181;-36
2023/10/11 23:16:54;;;;;;;20.55;10.02;;;18.40;99.90;;;;;;10492320;28;20044;-32
2023/10/11 23:22:01;;;;;;;33.70;10.95;;;18.80;99.90;;;;;;10491023;28;20067;-33
2023/10/11 23:27:02;;;;;;;29.90;10.32;;;18.20;99.90;;;;;;10489467;28;20640;-31
2023/10/11 23:32:05;;;;;;;28.58;8.98;;;18.50;99.90;;;;;;10497774;28;20098;-36
2023/10/11 23:37:14;;;;;;;33.53;9.60;;;18.70;99.90;;;;;;10497576;28;20131;-37
2023/10/11 23:42:20;;;;;;;25.98;10.48;;;18.40;99.90;;;;;;10500585;28;20049;-36
2023/10/11 23:47:27;;;;;;;25.35;9.77;;;18.10;99.90;;;;;;10497568;28;20041;-39
2023/10/11 23:52:30;;;;;;;24.25;8.93;;;17.80;99.90;;;;;;10497137;28;20466;-30
2023/10/11 23:57:35;;;;;;;25.35;7.85;;;17.60;99.90;;;;;;10495113;28;20505;-32
